Time;durP1;ratioP1;P1;durP2;ratioP2;P2;SDS_P1;SDS_P2;PMS_P1;PMS_P2;Temp;Humidity;BMP_temperature;BMP_pressure;BME280_temperature;BME280_humidity;BME280_pressure;Samples;Min_cycle;Max_cycle;Signal;HPM_P1;HPM_P2
2022/11/27 17:15:14;;;;;;;58.58;16.87;;;;;;;4.01;100.00;102071.05;1852000;76;22670;-86
2022/11/27 17:17:41;;;;;;;61.73;16.30;;;;;;;4.13;100.00;102068.78;1811746;77;20989;-89
2022/11/27 17:20:08;;;;;;;57.05;15.68;;;;;;;4.23;100.00;102068.52;1813654;77;21915;-89
2022/11/27 17:22:34;;;;;;;49.93;15.78;;;;;;;4.30;100.00;102062.80;1807588;77;20983;-88
2022/11/27 17:25:01;;;;;;;45.30;15.70;;;;;;;4.33;100.00;102055.77;1812768;77;21008;-89
2022/11/27 17:27:33;;;;;;;47.30;15.20;;;;;;;4.38;100.00;102058.69;1813582;77;21014;-89
2022/11/27 17:29:59;;;;;;;47.50;16.40;;;;;;;4.42;100.00;102060.00;1810364;77;21585;-88
2022/11/27 17:32:25;;;;;;;49.98;16.60;;;;;;;4.47;100.00;102058.09;1810159;77;21594;-88
2022/11/27 17:34:51;;;;;;;45.98;16.02;;;;;;;4.50;100.00;102059.92;1807490;77;20852;-88
2022/11/27 17:37:17;;;;;;;55.10;16.37;;;;;;;4.54;100.00;102065.20;1821401;77;21576;-88
2022/11/27 17:39:43;;;;;;;57.93;18.67;;;;;;;4.53;100.00;102062.22;1806416;78;21078;-88
2022/11/27 17:42:09;;;;;;;60.33;18.65;;;;;;;4.58;100.00;102056.83;1826442;78;21471;-88
2022/11/27 17:44:35;;;;;;;57.70;19.40;;;;;;;4.60;100.00;102056.97;1815590;77;20992;-88
2022/11/27 17:47:01;;;;;;;56.95;19.25;;;;;;;4.62;100.00;102055.44;1793758;80;20867;-88
2022/11/27 17:49:27;;;;;;;60.78;20.90;;;;;;;4.67;100.00;102059.72;1797304;77;21064;-89
2022/11/27 17:51:53;;;;;;;53.15;19.20;;;;;;;4.66;100.00;102063.41;1808795;77;21030;-88
2022/11/27 17:54:19;;;;;;;57.10;20.88;;;;;;;4.71;100.00;102064.52;1808862;77;21061;-88
2022/11/27 17:56:49;;;;;;;58.25;21.40;;;;;;;4.72;100.00;102062.16;1819748;77;21119;-89
2022/11/27 17:59:13;;;;;;;52.75;19.87;;;;;;;4.75;100.00;102058.30;1813825;77;21091;-88
2022/11/27 18:01:39;;;;;;;50.15;18.25;;;;;;;4.75;100.00;102067.64;1818297;77;20966;-89
2022/11/27 18:04:05;;;;;;;44.73;16.52;;;;;;;4.74;100.00;102065.48;1824944;78;20991;-89
2022/11/27 18:06:32;;;;;;;45.63;16.15;;;;;;;4.73;100.00;102059.80;1814930;77;21524;-88
2022/11/27 18:08:58;;;;;;;46.23;17.02;;;;;;;4.76;100.00;102059.95;1817465;77;21104;-89
2022/11/27 18:11:28;;;;;;;46.53;16.50;;;;;;;4.79;100.00;102058.23;1820541;77;21031;-89
2022/11/27 18:13:54;;;;;;;49.03;17.35;;;;;;;4.80;100.00;102057.25;1816851;76;21034;-89
2022/11/27 18:16:27;;;;;;;46.85;16.50;;;;;;;4.82;100.00;102065.88;1815228;77;21023;-88
2022/11/27 18:18:54;;;;;;;;;;;;;;;4.86;100.00;102068.52;1806214;77;21636;-89
2022/11/27 18:21:29;;;;;;;39.55;13.60;;;;;;;4.86;100.00;102065.85;1816847;77;21275;-88
2022/11/27 18:23:56;;;;;;;41.53;15.05;;;;;;;4.90;100.00;102067.13;1805228;77;21066;-88
2022/11/27 18:26:23;;;;;;;45.98;16.40;;;;;;;4.89;100.00;102067.33;1778285;77;22133;-88
2022/11/27 18:28:56;;;;;;;47.40;15.98;;;;;;;4.87;100.00;102070.68;1778334;77;21507;-88
2022/11/27 18:31:24;;;;;;;47.30;16.37;;;;;;;4.88;100.00;102069.17;1799896;77;21008;-88
2022/11/27 18:33:51;;;;;;;46.50;17.12;;;;;;;4.90;100.00;102071.13;1800600;78;21067;-88
2022/11/27 18:36:18;;;;;;;53.05;19.25;;;;;;;4.94;100.00;102074.25;1801523;77;21562;-88
2022/11/27 18:38:45;;;;;;;53.20;19.15;;;;;;;4.92;100.00;102075.79;1767418;79;21107;-88
2022/11/27 18:41:15;;;;;;;49.58;17.87;;;;;;;4.96;100.00;102071.72;1796601;77;21095;-87
2022/11/27 18:43:44;;;;;;;47.40;18.40;;;;;;;4.98;100.00;102080.39;1796361;78;21043;-88
2022/11/27 18:46:13;;;;;;;47.85;17.55;;;;;;;5.04;100.00;102085.50;1796438;78;21079;-88
2022/11/27 18:48:42;;;;;;;50.60;18.25;;;;;;;5.09;100.00;102088.92;1795690;78;21546;-88
2022/11/27 18:51:13;;;;;;;52.23;19.60;;;;;;;5.14;100.00;102086.53;1751614;81;21016;-88
2022/11/27 18:53:40;;;;;;;56.02;18.85;;;;;;;5.16;100.00;102089.86;1698080;84;21098;-88
2022/11/27 18:56:11;;;;;;;53.42;19.98;;;;;;;5.14;100.00;102090.55;1698521;84;21087;-88
2022/11/27 18:58:38;;;;;;;57.53;21.10;;;;;;;5.08;100.00;102085.44;1695028;84;21126;-88
2022/11/27 19:01:09;;;;;;;49.35;18.98;;;;;;;5.06;100.00;102090.64;1708608;82;21091;-88
2022/11/27 19:03:36;;;;;;;49.70;17.32;;;;;;;5.03;100.00;102095.88;1707445;83;21022;-88
2022/11/27 19:06:04;;;;;;;45.95;17.45;;;;;;;5.04;100.00;102092.69;1681078;83;21055;-88
2022/11/27 19:08:31;;;;;;;41.23;15.30;;;;;;;5.05;100.00;102087.66;1698292;84;21067;-87
2022/11/27 19:11:02;;;;;;;44.75;15.68;;;;;;;5.06;100.00;102084.81;1698148;84;21873;-88
2022/11/27 19:13:29;;;;;;;46.35;15.55;;;;;;;5.06;100.00;102087.97;1698653;81;21587;-88
2022/11/27 19:15:55;;;;;;;46.65;14.47;;;;;;;5.05;100.00;102095.16;1710183;83;21056;-88
2022/11/27 19:18:22;;;;;;;41.98;14.53;;;;;;;5.06;100.00;102099.51;1710244;83;21651;-88
2022/11/27 19:20:48;;;;;;;41.73;14.40;;;;;;;5.10;100.00;102099.95;1717876;82;21029;-88
2022/11/27 19:23:16;;;;;;;45.52;15.58;;;;;;;5.11;100.00;102097.08;1714985;83;21069;-88
2022/11/27 19:25:43;;;;;;;41.40;13.88;;;;;;;5.09;100.00;102104.96;1716029;83;21611;-89
2022/11/27 19:28:11;;;;;;;41.70;14.25;;;;;;;5.12;100.00;102109.97;1714977;82;21066;-89
2022/11/27 19:30:40;;;;;;;45.65;15.00;;;;;;;5.14;100.00;102111.92;1675230;85;21466;-88
2022/11/27 19:33:07;;;;;;;46.10;14.83;;;;;;;5.17;100.00;102110.21;1612371;87;21454;-88
2022/11/27 19:35:36;;;;;;;50.08;16.15;;;;;;;5.15;100.00;102107.73;1612372;87;21899;-88
2022/11/27 19:38:03;;;;;;;49.88;15.20;;;;;;;5.11;100.00;102103.77;1516603;92;21080;-88
2022/11/27 19:40:31;;;;;;;57.38;16.90;;;;;;;5.11;100.00;102109.11;1512579;92;21752;-88
2022/11/27 19:42:58;;;;;;;57.62;18.45;;;;;;;5.08;100.00;102118.02;1522067;92;21116;-88
2022/11/27 19:45:24;;;;;;;54.40;17.23;;;;;;;5.00;100.00;102118.95;1504951;92;21248;-88
2022/11/27 19:47:51;;;;;;;57.62;18.37;;;;;;;5.00;100.00;102117.11;1500238;93;21302;-88
2022/11/27 19:50:18;;;;;;;56.83;16.85;;;;;;;4.97;100.00;102114.80;1516566;92;21557;-88
2022/11/27 19:52:45;;;;;;;60.60;18.90;;;;;;;4.97;100.00;102108.13;1514368;92;21094;-88
2022/11/27 19:55:11;;;;;;;58.75;18.12;;;;;;;4.95;100.00;102111.48;1514788;92;21186;-88
2022/11/27 19:57:37;;;;;;;58.38;17.95;;;;;;;4.94;100.00;102108.50;1535111;91;21666;-88
2022/11/27 20:00:08;;;;;;;56.20;17.73;;;;;;;4.95;100.00;102114.16;1544105;91;21964;-88
2022/11/27 20:02:35;;;;;;;56.15;18.57;;;;;;;4.97;100.00;102116.14;1545328;90;21567;-88
2022/11/27 20:05:03;;;;;;;54.70;18.05;;;;;;;4.95;100.00;102116.83;1484343;94;21133;-88
2022/11/27 20:07:29;;;;;;;55.30;17.35;;;;;;;4.93;100.00;102115.34;1525964;93;21646;-89
2022/11/27 20:09:55;;;;;;;56.48;16.85;;;;;;;4.94;100.00;102121.00;1521476;93;20936;-88
2022/11/27 20:12:21;;;;;;;52.67;16.48;;;;;;;4.97;100.00;102117.48;1527162;93;21325;-89
2022/11/27 20:14:47;;;;;;;61.37;17.65;;;;;;;4.98;100.00;102118.30;1535301;92;21250;-88
2022/11/27 20:17:13;;;;;;;60.48;17.25;;;;;;;5.00;100.00;102122.45;1540677;92;21614;-88
2022/11/27 20:19:39;;;;;;;52.23;17.57;;;;;;;4.99;100.00;102113.27;1532532;92;21016;-88
2022/11/27 20:22:05;;;;;;;54.80;16.27;;;;;;;5.00;100.00;102114.44;1534024;91;21199;-88
2022/11/27 20:24:32;;;;;;;68.17;18.75;;;;;;;5.00;100.00;102113.10;1534643;91;21104;-88
2022/11/27 20:26:58;;;;;;;68.83;19.77;;;;;;;4.96;100.00;102114.46;1536256;91;21141;-88
2022/11/27 20:29:24;;;;;;;71.53;19.80;;;;;;;4.92;100.00;102107.84;1548118;89;21286;-88
2022/11/27 20:31:50;;;;;;;72.70;20.37;;;;;;;4.92;100.00;102110.52;1592850;88;21104;-88
2022/11/27 20:34:20;;;;;;;76.97;21.93;;;;;;;4.90;100.00;102109.86;1604295;86;21002;-88
2022/11/27 20:36:47;;;;;;;65.25;20.12;;;;;;;4.93;100.00;102115.34;1638679;85;21268;-89
2022/11/27 20:39:13;;;;;;;91.00;22.35;;;;;;;4.97;100.00;102121.48;1641745;85;21036;-88
2022/11/27 20:41:39;;;;;;;84.35;23.57;;;;;;;4.98;100.00;102119.13;1641317;85;21188;-88
2022/11/27 20:44:05;;;;;;;79.82;22.37;;;;;;;4.98;100.00;102124.98;1625613;87;21041;-88
2022/11/27 20:46:33;;;;;;;81.78;24.43;;;;;;;5.03;100.00;102125.74;1645297;85;21198;-88
2022/11/27 20:49:00;;;;;;;77.85;22.32;;;;;;;5.03;100.00;102120.40;1647800;87;22021;-88
2022/11/27 20:51:29;;;;;;;76.05;22.00;;;;;;;5.00;100.00;102124.30;1647717;85;21084;-88
2022/11/27 20:53:58;;;;;;;72.35;22.40;;;;;;;4.97;100.00;102114.80;1647892;87;21199;-88
2022/11/27 20:56:24;;;;;;;75.55;23.05;;;;;;;4.95;100.00;102111.48;1639205;87;21517;-87
2022/11/27 20:58:50;;;;;;;77.78;23.10;;;;;;;4.92;100.00;102115.86;1621276;88;21083;-88
2022/11/27 21:01:24;;;;;;;83.10;23.73;;;;;;;4.93;100.00;102110.00;1649097;81;21082;-88
2022/11/27 21:03:52;;;;;;;77.53;22.22;;;;;;;4.93;100.00;102112.16;1769958;81;21015;-88
2022/11/27 21:06:22;;;;;;;76.90;23.57;;;;;;;4.93;100.00;102113.50;1770296;81;21324;-87
2022/11/27 21:08:49;;;;;;;75.65;22.58;;;;;;;4.96;100.00;102122.48;1770272;80;21070;-88
2022/11/27 21:11:24;;;;;;;75.35;22.27;;;;;;;4.98;100.00;102123.12;1770426;81;21015;-88
2022/11/27 21:14:00;;;;;;;84.72;23.30;;;;;;;5.00;100.00;102126.45;1769447;80;21538;-88
2022/11/27 21:16:30;;;;;;;79.32;23.45;;;;;;;5.03;100.00;102119.06;1726288;81;21031;-88
2022/11/27 21:19:13;;;;;;;80.53;24.52;;;;;;;5.00;100.00;102127.79;1710594;81;21082;-87
2022/11/27 21:21:39;;;;;;;77.58;22.37;;;;;;;4.97;100.00;102124.16;1735788;82;21011;-88
2022/11/27 21:24:06;;;;;;;80.45;22.17;;;;;;;4.95;100.00;102128.02;1715798;82;21101;-88
2022/11/27 21:26:32;;;;;;;80.47;22.93;;;;;;;4.96;100.00;102129.67;1689323;83;21292;-88
2022/11/27 21:28:58;;;;;;;85.80;23.70;;;;;;;4.97;100.00;102133.98;1674125;83;21565;-88
2022/11/27 21:31:29;;;;;;;81.35;23.50;;;;;;;4.94;100.00;102132.54;1674600;83;20903;-88
2022/11/27 21:33:58;;;;;;;87.27;23.30;;;;;;;4.95;100.00;102142.20;1673858;83;21653;-88
2022/11/27 21:36:28;;;;;;;85.62;22.42;;;;;;;4.97;100.00;102137.52;1674079;83;21097;-88
2022/11/27 21:38:55;;;;;;;85.55;25.40;;;;;;;4.97;100.00;102136.17;1674077;83;21210;-88
2022/11/27 21:41:21;;;;;;;81.28;23.15;;;;;;;4.96;100.00;102142.52;1674263;83;21057;-88
2022/11/27 21:43:50;;;;;;;85.15;23.60;;;;;;;4.93;100.00;102139.39;1674214;83;21598;-88
2022/11/27 21:46:21;;;;;;;91.10;23.98;;;;;;;4.92;100.00;102145.75;1670880;83;21030;-88
2022/11/27 21:48:50;;;;;;;79.60;23.22;;;;;;;4.92;100.00;102146.58;1674077;83;21037;-88
2022/11/27 21:51:19;;;;;;;84.75;24.30;;;;;;;4.91;100.00;102147.60;1693118;83;21177;-88
2022/11/27 21:53:47;;;;;;;85.15;23.92;;;;;;;4.93;100.00;102140.72;1708301;82;21553;-88
2022/11/27 21:56:16;;;;;;;78.15;23.40;;;;;;;4.91;100.00;102148.94;1708463;83;21003;-88
2022/11/27 21:58:43;;;;;;;82.62;24.02;;;;;;;4.93;100.00;102139.39;1708259;83;21097;-88
2022/11/27 22:01:15;;;;;;;81.08;23.57;;;;;;;4.94;100.00;102142.37;1708847;84;21528;-88
2022/11/27 22:03:41;;;;;;;80.62;22.93;;;;;;;4.94;100.00;102145.89;1706089;84;21186;-88
2022/11/27 22:06:13;;;;;;;76.62;22.70;;;;;;;4.94;100.00;102144.56;1708966;83;21534;-88
2022/11/27 22:08:41;;;;;;;93.12;23.25;;;;;;;4.96;100.00;102147.86;1708790;84;21483;-88
2022/11/27 22:11:15;;;;;;;85.85;23.57;;;;;;;5.00;100.00;102143.00;1708936;83;21590;-88
2022/11/27 22:13:41;;;;;;;84.45;24.70;;;;;;;5.05;100.00;102145.09;1708830;83;21045;-88
2022/11/27 22:16:18;;;;;;;82.02;22.90;;;;;;;5.09;100.00;102145.04;1739455;82;21082;-88
2022/11/27 22:18:45;;;;;;;79.53;20.88;;;;;;;5.09;100.00;102146.38;1639523;86;21109;-87
2022/11/27 22:21:13;;;;;;;79.80;22.67;;;;;;;5.09;100.00;102147.23;1639868;86;21550;-88
2022/11/27 22:23:39;;;;;;;72.17;21.82;;;;;;;5.05;100.00;102145.92;1639492;86;21121;-88
2022/11/27 22:26:11;;;;;;;73.57;21.48;;;;;;;5.10;100.00;102149.39;1639775;87;21844;-88
2022/11/27 22:28:37;;;;;;;75.30;21.40;;;;;;;5.08;100.00;102151.41;1588061;90;21997;-88
2022/11/27 22:31:16;;;;;;;76.07;22.10;;;;;;;5.04;100.00;102150.12;1587979;90;21119;-88
2022/11/27 22:33:43;;;;;;;82.12;22.00;;;;;;;5.01;100.00;102157.49;1588165;90;21095;-88
2022/11/27 22:36:23;;;;;;;74.30;22.10;;;;;;;5.05;100.00;102155.78;1588249;88;21112;-88
2022/11/27 22:38:53;;;;;;;70.57;20.88;;;;;;;5.05;100.00;102157.12;1514408;93;21246;-88
2022/11/27 22:41:21;;;;;;;80.25;22.45;;;;;;;5.02;100.00;102152.97;1510657;95;21617;-88
2022/11/27 22:43:48;;;;;;;95.45;23.35;;;;;;;4.99;100.00;102155.50;1518668;93;21142;-88
2022/11/27 22:46:31;;;;;;;80.67;21.27;;;;;;;4.95;100.00;102152.89;1510353;95;22186;-88
2022/11/27 22:48:59;;;;;;;80.07;22.27;;;;;;;4.95;100.00;102156.07;1509895;95;21141;-87
2022/11/27 22:51:27;;;;;;;83.07;22.70;;;;;;;4.92;100.00;102159.11;1510464;95;21037;-88
2022/11/27 22:53:53;;;;;;;80.70;22.10;;;;;;;4.93;100.00;102152.74;1510671;95;21843;-88
2022/11/27 22:56:19;;;;;;;78.25;21.95;;;;;;;4.93;100.00;102153.56;1510347;95;21632;-88
2022/11/27 22:58:45;;;;;;;82.15;21.93;;;;;;;4.90;100.00;102151.78;1510399;93;21063;-88
2022/11/27 23:01:23;;;;;;;83.67;21.73;;;;;;;4.89;100.00;102147.45;1510582;95;21103;-88
2022/11/27 23:03:50;;;;;;;80.20;21.65;;;;;;;4.88;100.00;102158.66;1510391;95;21075;-88
2022/11/27 23:06:19;;;;;;;83.05;22.00;;;;;;;4.86;100.00;102155.33;1510502;95;22147;-88
2022/11/27 23:08:47;;;;;;;74.27;21.60;;;;;;;4.85;100.00;102146.97;1510349;95;21152;-88
2022/11/27 23:11:17;;;;;;;76.77;21.75;;;;;;;4.84;100.00;102145.33;1510282;95;22536;-88
2022/11/27 23:13:43;;;;;;;78.42;21.50;;;;;;;4.84;100.00;102149.33;1486664;95;21201;-88
2022/11/27 23:16:09;;;;;;;79.75;21.82;;;;;;;4.82;100.00;102157.20;1558912;89;20942;-88
2022/11/27 23:18:37;;;;;;;79.35;21.95;;;;;;;4.87;100.00;102162.31;1599455;89;21141;-88
2022/11/27 23:21:10;;;;;;;83.25;21.80;;;;;;;4.88;100.00;102161.33;1599198;89;21153;-88
2022/11/27 23:23:36;;;;;;;;;;;;;;;4.89;100.00;102154.95;1574278;91;21107;-88
2022/11/27 23:26:11;;;;;;;79.35;21.85;;;;;;;4.87;100.00;102153.48;1571926;91;20174;-88
2022/11/27 23:28:38;;;;;;;77.70;22.20;;;;;;;4.87;100.00;102154.30;1572066;91;21670;-88
2022/11/27 23:31:12;;;;;;;79.87;22.50;;;;;;;4.91;100.00;102156.95;1579075;87;21167;-87
2022/11/27 23:33:38;;;;;;;76.82;20.12;;;;;;;4.95;100.00;102156.89;1616247;87;21100;-88
2022/11/27 23:36:06;;;;;;;86.85;22.77;;;;;;;4.99;100.00;102155.50;1637206;87;21137;-88
2022/11/27 23:38:32;;;;;;;89.52;22.50;;;;;;;5.00;100.00;102161.19;1637182;87;21042;-88
2022/11/27 23:41:11;;;;;;;91.85;22.55;;;;;;;5.03;100.00;102163.15;1637120;87;20919;-88
2022/11/27 23:43:38;;;;;;;80.20;21.97;;;;;;;5.01;100.00;102162.83;1637511;87;21413;-89
2022/11/27 23:46:07;;;;;;;91.70;22.32;;;;;;;5.04;100.00;102162.98;1637150;87;21084;-88
2022/11/27 23:48:33;;;;;;;98.92;23.38;;;;;;;5.06;100.00;102164.11;1636968;87;21050;-88
2022/11/27 23:51:00;;;;;;;99.92;24.55;;;;;;;5.03;100.00;102165.34;1636839;87;22258;-88
2022/11/27 23:53:27;;;;;;;99.92;23.22;;;;;;;5.02;100.00;102174.34;1636773;87;21061;-88
2022/11/27 23:55:53;;;;;;;100.42;23.85;;;;;;;5.04;100.00;102176.34;1637210;87;21077;-88
2022/11/27 23:58:19;;;;;;;91.02;23.83;;;;;;;5.00;100.00;102171.88;1636930;87;21076;-88
